Hales Corners, WI (53130)

8:18 PM CDT on April 30, 2017 (GMT -0500)
Foxwood Crossing | | Change Station

Elev 830 ft 42.96 °N, 88.06 °W | Updated 17 minutes ago

Overcast
Overcast
39.7 °F
Feels Like 35 °F
N
6.0
Wind Variable Wind from NE
Gusts 14.0 mph

Today
High -- | Low -- °F
--% Chance of Precip.
Yesterday
High -- | Low -- °F
Precip. -- in
Pressure 29.77 in
Visibility 1.5 miles
Clouds Overcast 200 ft
Windchill 35 °F
Dew Point 40 °F
Humidity 99%
Rainfall 0.02 in
Snow Depth Not available.
5:47 AM 7:52 PM
Waxing Crescent, 28% visible
METAR KMKE 010052Z 03014G20KT 1 1/2SM -RA OVC002 05/04 A2976 RMK AO2 SFC VIS 10 SLP081 P0001 T00500044
Pressure 29.77 in
Visibility 1.5 miles
Clouds Overcast 200 ft
Windchill 35 °F
Dew Point 40 °F
Humidity 99%
Rainfall 0.02 in
Snow Depth Not available.
5:47 AM 7:52 PM
Waxing Crescent, 28% visible
METAR KMKE 010052Z 03014G20KT 1 1/2SM -RA OVC002 05/04 A2976 RMK AO2 SFC VIS 10 SLP081 P0001 T00500044

Get Severe Weather Alerts

Thanks for signing up!

Be on the lookout for a verification email in your inbox.

You'll start receiving the daily forecast at 8 AM.

×

10-Day Weather Forecast

Almanac

Astronomy

Apr. 30, 2017 Rise Set
Actual Time
Civil Twilight
Nautical Twilight
Astronomical Twilight
Moon
Length of Visible Light
Length of Day
Tomorrow will be .
, % of the Moon is Illuminated

Today's Extremes

State Highs State Lows

Community

WunderPhotos

WunderBlog® & News

Nearby

Air Quality

  Air Quality AQ Index Pollutant
Not available.

Snow Depth

Station Depth Elevation

Earthquake Activity

City Distance Mag. Time & Date
Minimum magnitude displayed is 2.5.

Coastal Water Temperatures

Place Temperature

Stations

Nearby Weather Stations

Station Location Temp. Windchill Dew Point Humidity Wind Precip. Elev Updated Type
                   

Watches & Warnings

There are currently no watches in effect.